Time;durP1;ratioP1;P1;durP2;ratioP2;P2;SDS_P1;SDS_P2;PMS_P1;PMS_P2;Temp;Humidity;BMP_temperature;BMP_pressure;BME280_temperature;BME280_humidity;BME280_pressure;Samples;Min_cycle;Max_cycle;Signal;HPM_P1;HPM_P2
2023/04/30 00:01:47;;;;;;;6.63;5.57;;;12.50;73.50;;;;;;5055956;28;20017;-73
2023/04/30 00:04:13;;;;;;;8.07;5.60;;;12.40;73.60;;;;;;5055818;28;20037;-72
2023/04/30 00:06:39;;;;;;;12.48;8.38;;;12.50;73.80;;;;;;5055806;28;20029;-75
2023/04/30 00:09:04;;;;;;;8.15;6.53;;;12.30;74.00;;;;;;5055883;28;20032;-73
2023/04/30 00:11:30;;;;;;;12.60;9.88;;;12.30;74.60;;;;;;5055747;28;20028;-73
2023/04/30 00:13:58;;;;;;;11.00;9.25;;;12.30;74.70;;;;;;5055698;28;20029;-74
2023/04/30 00:16:24;;;;;;;12.18;10.38;;;12.30;74.50;;;;;;5055681;28;20393;-73
2023/04/30 00:18:49;;;;;;;12.70;10.38;;;12.40;74.60;;;;;;5055722;28;20025;-73
2023/04/30 00:21:15;;;;;;;10.55;9.45;;;12.40;74.40;;;;;;5055690;28;20048;-73
2023/04/30 00:23:41;;;;;;;9.43;8.40;;;12.50;74.30;;;;;;5055660;28;20037;-73
2023/04/30 00:26:06;;;;;;;11.38;7.97;;;12.50;74.20;;;;;;5055654;28;20033;-72
2023/04/30 00:28:32;;;;;;;9.13;6.45;;;12.50;74.10;;;;;;5055263;28;20098;-73
2023/04/30 00:30:57;;;;;;;7.28;6.00;;;12.60;74.00;;;;;;5055471;28;20032;-73
2023/04/30 00:33:23;;;;;;;10.18;6.13;;;12.60;74.10;;;;;;5037468;28;20041;-72
2023/04/30 00:35:49;;;;;;;10.40;6.80;;;12.60;73.90;;;;;;5055278;28;20366;-72
2023/04/30 00:38:14;;;;;;;8.10;6.32;;;12.60;73.90;;;;;;5055396;28;20033;-73
2023/04/30 00:40:41;;;;;;;8.23;6.28;;;12.60;73.70;;;;;;5055152;28;20108;-73
2023/04/30 00:43:06;;;;;;;7.60;6.03;;;12.50;73.80;;;;;;5055095;28;20468;-73
2023/04/30 00:45:32;;;;;;;8.02;6.60;;;12.50;73.80;;;;;;5055262;28;20093;-73
2023/04/30 00:47:58;;;;;;;9.75;7.07;;;12.50;73.70;;;;;;5054999;28;20028;-73
2023/04/30 00:50:24;;;;;;;10.27;6.30;;;12.40;73.80;;;;;;5055054;28;20033;-72
2023/04/30 00:52:50;;;;;;;11.85;7.45;;;12.50;74.10;;;;;;5055077;28;20444;-73
2023/04/30 00:55:16;;;;;;;9.27;7.55;;;12.40;74.30;;;;;;5055052;28;20048;-72
2023/04/30 00:57:41;;;;;;;10.57;8.40;;;12.40;74.30;;;;;;5054967;28;20082;-73
2023/04/30 01:00:09;;;;;;;10.55;8.32;;;12.30;74.60;;;;;;5036938;28;20112;-72
2023/04/30 01:02:36;;;;;;;14.88;8.90;;;12.30;74.80;;;;;;5054852;28;20025;-72
2023/04/30 01:05:02;;;;;;;9.68;7.80;;;12.30;74.90;;;;;;5054853;28;20102;-72
2023/04/30 01:07:29;;;;;;;12.15;8.57;;;12.20;75.00;;;;;;5054763;28;20029;-72
2023/04/30 01:09:55;;;;;;;10.23;7.65;;;12.20;75.10;;;;;;5054736;28;20084;-72
2023/04/30 01:12:36;;;;;;;10.45;8.32;;;12.20;75.10;;;;;;5054624;28;20029;-72
2023/04/30 01:15:31;;;;;;;12.25;8.90;;;12.20;75.40;;;;;;5065311;28;20024;-72
2023/04/30 01:18:09;;;;;;;14.20;9.30;;;12.20;75.30;;;;;;5057015;28;20448;-73
2023/04/30 01:20:40;;;;;;;12.35;9.05;;;12.20;75.30;;;;;;5074481;28;20063;-72
2023/04/30 01:23:20;;;;;;;12.27;8.80;;;12.10;75.50;;;;;;5074507;28;20025;-72
2023/04/30 01:26:04;;;;;;;9.65;7.78;;;12.00;75.80;;;;;;5074336;28;20055;-72
2023/04/30 01:28:31;;;;;;;10.52;8.32;;;12.00;76.10;;;;;;5074413;28;20444;-72
2023/04/30 01:30:57;;;;;;;10.43;7.90;;;11.90;76.30;;;;;;5074372;28;20095;-72
2023/04/30 01:33:23;;;;;;;10.82;8.45;;;11.90;76.30;;;;;;5074265;28;20043;-72
2023/04/30 01:35:58;;;;;;;11.75;8.40;;;11.90;76.40;;;;;;5073976;28;20024;-72
2023/04/30 01:38:24;;;;;;;;;;;11.90;76.30;;;;;;5075098;28;20033;-71
2023/04/30 01:40:53;;;;;;;;;;;11.90;76.30;;;;;;5074542;28;19908;-72
2023/04/30 01:43:37;;;;;;;11.35;7.68;;;11.90;76.30;;;;;;5073928;28;20276;-72
2023/04/30 01:46:17;;;;;;;11.10;7.90;;;11.90;76.50;;;;;;5055995;28;20017;-73
2023/04/30 01:49:03;;;;;;;9.80;8.20;;;12.00;76.40;;;;;;5074108;28;20530;-73
2023/04/30 01:51:42;;;;;;;11.88;7.75;;;11.90;76.40;;;;;;5055959;28;20033;-72
2023/04/30 01:54:20;;;;;;;8.77;6.57;;;11.90;76.50;;;;;;5073451;28;20033;-72
2023/04/30 01:56:58;;;;;;;8.10;5.75;;;11.90;76.80;;;;;;5073835;28;20469;-71
2023/04/30 01:59:24;;;;;;;11.63;5.93;;;11.90;77.00;;;;;;5073959;28;20028;-72
2023/04/30 02:01:49;;;;;;;7.65;5.55;;;11.80;77.20;;;;;;5073708;28;20374;-71
2023/04/30 02:04:15;;;;;;;7.40;6.15;;;11.80;77.50;;;;;;5073608;28;20036;-72
2023/04/30 02:06:40;;;;;;;6.53;5.43;;;11.80;77.60;;;;;;5073745;28;20500;-72
2023/04/30 02:09:06;;;;;;;11.10;5.93;;;11.80;77.80;;;;;;5073692;28;20629;-71
2023/04/30 02:11:31;;;;;;;7.03;5.97;;;11.70;77.80;;;;;;5073763;28;20376;-72
2023/04/30 02:13:57;;;;;;;9.07;6.32;;;11.70;77.80;;;;;;5073469;28;20694;-73
2023/04/30 02:16:23;;;;;;;9.80;6.78;;;11.70;77.90;;;;;;5073708;28;20017;-73
2023/04/30 02:18:48;;;;;;;8.95;6.70;;;11.70;77.80;;;;;;5073514;28;20024;-73
2023/04/30 02:21:14;;;;;;;10.40;7.45;;;11.70;77.80;;;;;;5073402;28;20029;-73
2023/04/30 02:23:40;;;;;;;9.10;6.93;;;11.70;77.80;;;;;;5073459;28;20125;-73
2023/04/30 02:26:06;;;;;;;6.90;6.20;;;11.70;78.00;;;;;;5055030;28;20024;-73
2023/04/30 02:28:31;;;;;;;9.38;7.20;;;11.60;78.00;;;;;;5073265;28;20082;-73
2023/04/30 02:30:57;;;;;;;11.20;7.38;;;11.60;78.10;;;;;;5073042;28;20453;-73
2023/04/30 02:33:23;;;;;;;9.25;7.30;;;11.50;78.40;;;;;;5073372;28;20020;-73
2023/04/30 02:35:48;;;;;;;12.75;8.43;;;11.40;78.30;;;;;;5073097;28;20016;-71
2023/04/30 02:38:14;;;;;;;10.35;7.72;;;11.30;78.30;;;;;;5073286;28;20047;-71
2023/04/30 02:40:41;;;;;;;9.75;7.45;;;11.30;78.60;;;;;;5073116;28;20025;-71
2023/04/30 02:43:06;;;;;;;13.30;9.30;;;11.30;78.80;;;;;;5073330;28;20082;-71
2023/04/30 02:45:32;;;;;;;11.32;8.88;;;11.20;78.60;;;;;;5073145;28;20427;-73
2023/04/30 02:47:58;;;;;;;10.80;8.07;;;11.20;78.50;;;;;;5073105;28;20037;-73
2023/04/30 02:50:23;;;;;;;9.77;7.43;;;11.20;78.40;;;;;;5072747;28;20029;-72
2023/04/30 02:52:49;;;;;;;8.93;7.05;;;11.30;78.40;;;;;;5071830;28;20119;-72
2023/04/30 02:55:15;;;;;;;9.00;6.43;;;11.20;78.30;;;;;;5073071;28;20460;-71
2023/04/30 02:57:41;;;;;;;8.07;6.55;;;11.20;78.10;;;;;;5054964;28;20020;-71
2023/04/30 03:00:07;;;;;;;7.55;5.75;;;11.20;78.00;;;;;;5055031;28;20538;-71
2023/04/30 03:02:32;;;;;;;9.05;6.30;;;11.20;78.10;;;;;;5072826;28;20029;-71
2023/04/30 03:04:58;;;;;;;6.97;6.25;;;11.10;78.00;;;;;;5072819;28;20028;-71
2023/04/30 03:07:23;;;;;;;9.77;7.10;;;11.10;78.00;;;;;;5072010;28;20027;-72
2023/04/30 03:09:49;;;;;;;9.88;6.78;;;11.00;77.90;;;;;;5072867;28;20465;-71
2023/04/30 03:12:14;;;;;;;7.95;6.55;;;11.00;78.00;;;;;;5072957;28;20017;-71
2023/04/30 03:14:40;;;;;;;11.23;6.68;;;11.00;78.10;;;;;;5072600;28;20063;-71
2023/04/30 03:17:06;;;;;;;7.97;6.32;;;10.90;77.90;;;;;;5071472;28;20048;-71
2023/04/30 03:19:31;;;;;;;8.77;6.88;;;10.90;77.60;;;;;;5072709;28;20067;-71
2023/04/30 03:21:57;;;;;;;8.68;6.65;;;10.90;77.30;;;;;;5072699;28;20461;-73
2023/04/30 03:24:23;;;;;;;11.38;5.85;;;10.70;77.00;;;;;;5072598;28;20400;-75
2023/04/30 03:26:49;;;;;;;7.95;6.15;;;10.70;77.30;;;;;;5072723;28;20039;-73
2023/04/30 03:29:15;;;;;;;10.57;7.35;;;10.70;77.40;;;;;;5072680;28;20453;-73
2023/04/30 03:31:41;;;;;;;8.13;6.47;;;10.60;77.20;;;;;;5072485;28;20017;-71
2023/04/30 03:34:07;;;;;;;9.80;6.43;;;10.60;77.50;;;;;;5072507;28;20027;-72
2023/04/30 03:36:32;;;;;;;8.95;6.88;;;10.60;77.90;;;;;;5072354;28;20098;-72
2023/04/30 03:38:58;;;;;;;9.25;7.05;;;10.60;78.10;;;;;;5072537;28;20033;-72
2023/04/30 03:41:23;;;;;;;7.28;6.30;;;10.70;78.10;;;;;;5072426;28;20099;-72
2023/04/30 03:43:49;;;;;;;10.30;7.20;;;10.70;78.20;;;;;;5054506;28;20028;-72
2023/04/30 03:46:14;;;;;;;8.48;6.60;;;10.80;78.00;;;;;;5054449;28;20105;-71
2023/04/30 03:48:40;;;;;;;9.05;7.40;;;10.80;78.00;;;;;;5054181;28;20025;-72
2023/04/30 03:51:06;;;;;;;10.02;7.53;;;10.80;77.70;;;;;;5072543;28;20485;-72
2023/04/30 03:53:31;;;;;;;8.57;6.03;;;10.80;77.70;;;;;;5072304;28;20029;-72
2023/04/30 03:55:57;;;;;;;10.75;7.40;;;10.80;77.70;;;;;;5072392;28;20468;-72
2023/04/30 03:58:23;;;;;;;12.43;9.50;;;10.70;76.70;;;;;;5072338;28;20472;-72
2023/04/30 04:00:49;;;;;;;12.82;7.70;;;10.50;77.20;;;;;;5072322;28;20023;-72
2023/04/30 04:03:15;;;;;;;13.57;9.15;;;10.50;77.70;;;;;;5072259;28;20025;-71
2023/04/30 04:05:41;;;;;;;11.40;8.95;;;10.40;78.30;;;;;;5072156;28;20434;-71
2023/04/30 04:08:06;;;;;;;14.15;10.38;;;10.50;79.00;;;;;;5072173;28;20049;-73
2023/04/30 04:10:36;;;;;;;17.80;11.48;;;10.50;79.30;;;;;;5072206;28;20078;-73
2023/04/30 04:13:01;;;;;;;15.68;10.80;;;10.50;79.80;;;;;;5071821;28;20028;-72
2023/04/30 04:15:26;;;;;;;15.93;12.30;;;10.50;79.90;;;;;;5071908;28;20024;-72
2023/04/30 04:17:52;;;;;;;17.15;12.73;;;10.50;80.50;;;;;;5072745;28;20028;-72
2023/04/30 04:20:18;;;;;;;20.38;13.98;;;10.50;80.50;;;;;;5075714;28;20399;-72
2023/04/30 04:22:43;;;;;;;17.00;12.82;;;10.40;81.70;;;;;;5075687;28;20032;-72
2023/04/30 04:25:09;;;;;;;18.88;12.57;;;10.40;81.70;;;;;;5075743;28;20044;-72
2023/04/30 04:27:35;;;;;;;17.15;12.27;;;10.40;81.70;;;;;;5075692;28;20469;-73
2023/04/30 04:30:03;;;;;;;18.42;12.98;;;10.50;81.60;;;;;;5075654;28;20079;-72
2023/04/30 04:32:31;;;;;;;15.20;12.07;;;10.60;81.60;;;;;;5075692;28;20024;-75
2023/04/30 04:34:57;;;;;;;16.48;12.35;;;10.70;81.40;;;;;;5075779;28;20492;-72
2023/04/30 04:37:23;;;;;;;18.30;12.15;;;10.80;81.10;;;;;;5075431;28;20045;-72
2023/04/30 04:39:48;;;;;;;15.27;12.02;;;10.80;81.00;;;;;;5075554;28;20035;-72
2023/04/30 04:42:19;;;;;;;14.80;11.55;;;10.90;80.70;;;;;;5075571;28;20024;-72
2023/04/30 04:44:44;;;;;;;15.27;11.95;;;10.90;80.60;;;;;;5057489;28;20549;-72
2023/04/30 04:47:11;;;;;;;17.00;11.45;;;10.90;80.50;;;;;;5075133;28;20060;-72
2023/04/30 04:49:37;;;;;;;16.35;12.45;;;10.90;80.40;;;;;;5075487;28;20405;-73
2023/04/30 04:52:02;;;;;;;19.83;13.13;;;11.00;80.00;;;;;;5075217;28;20017;-71
2023/04/30 04:54:28;;;;;;;16.17;11.23;;;11.10;79.80;;;;;;5075119;28;20024;-73
2023/04/30 04:56:54;;;;;;;18.27;13.05;;;11.10;79.80;;;;;;5075321;28;20481;-73
2023/04/30 04:59:20;;;;;;;16.92;11.93;;;11.10;79.40;;;;;;5075564;28;20027;-73
2023/04/30 05:01:45;;;;;;;16.70;12.20;;;11.10;79.70;;;;;;5075166;28;20396;-71
2023/04/30 05:04:12;;;;;;;14.75;10.43;;;11.10;79.60;;;;;;5075191;28;20449;-71
2023/04/30 05:06:38;;;;;;;17.10;11.05;;;11.20;79.50;;;;;;5075489;28;20024;-72
2023/04/30 05:09:07;;;;;;;15.07;11.40;;;11.20;79.00;;;;;;5057423;28;20514;-73
2023/04/30 05:11:33;;;;;;;16.60;11.80;;;11.20;78.70;;;;;;5075999;28;20031;-72
2023/04/30 05:13:58;;;;;;;16.92;12.27;;;11.20;78.60;;;;;;5075537;28;20403;-72
2023/04/30 05:16:25;;;;;;;15.63;11.13;;;11.20;78.50;;;;;;5081610;28;20016;-72
2023/04/30 05:18:51;;;;;;;14.13;10.38;;;11.10;78.90;;;;;;5083691;28;20088;-73
2023/04/30 05:21:16;;;;;;;15.57;11.95;;;11.00;79.00;;;;;;5064870;28;20048;-73
2023/04/30 05:23:43;;;;;;;14.00;10.25;;;10.90;79.60;;;;;;5078657;28;20021;-73
2023/04/30 05:26:09;;;;;;;12.18;9.25;;;10.90;79.70;;;;;;5075429;28;20055;-73
2023/04/30 05:28:34;;;;;;;13.77;9.57;;;11.00;79.70;;;;;;5056778;28;20092;-73
2023/04/30 05:31:00;;;;;;;11.68;9.35;;;11.00;79.70;;;;;;5073803;28;20028;-74
2023/04/30 05:33:26;;;;;;;17.80;12.35;;;11.10;79.50;;;;;;5074649;28;20035;-73
2023/04/30 05:35:51;;;;;;;17.33;12.00;;;11.20;78.80;;;;;;5074466;28;20027;-73
2023/04/30 05:38:17;;;;;;;15.75;10.95;;;11.10;79.20;;;;;;5078093;28;20021;-73
2023/04/30 05:40:42;;;;;;;12.93;10.40;;;11.10;79.30;;;;;;5074450;28;20031;-73
2023/04/30 05:43:08;;;;;;;15.60;10.77;;;11.20;79.40;;;;;;5074330;28;20028;-73
2023/04/30 05:45:33;;;;;;;15.38;10.70;;;11.20;79.10;;;;;;5074258;28;20024;-73
2023/04/30 05:48:00;;;;;;;13.93;9.48;;;11.20;79.00;;;;;;5074239;28;20020;-73
2023/04/30 05:50:26;;;;;;;11.40;9.15;;;11.20;78.90;;;;;;5074375;28;20024;-74
2023/04/30 05:52:51;;;;;;;14.77;11.02;;;11.30;78.80;;;;;;5074469;28;20016;-73
2023/04/30 05:55:17;;;;;;;14.25;10.45;;;11.30;78.50;;;;;;5074116;28;20033;-74
2023/04/30 05:57:42;;;;;;;14.20;9.98;;;11.40;78.40;;;;;;5056314;28;20025;-72
2023/04/30 06:00:09;;;;;;;12.40;9.77;;;11.40;78.40;;;;;;5073981;28;20110;-73
2023/04/30 06:02:40;;;;;;;12.63;8.98;;;11.40;78.20;;;;;;5074074;28;20021;-74
2023/04/30 06:05:07;;;;;;;12.07;7.78;;;11.40;78.30;;;;;;5073892;28;20046;-73
2023/04/30 06:07:33;;;;;;;9.93;7.70;;;11.40;78.40;;;;;;5074044;28;20458;-73
2023/04/30 06:09:58;;;;;;;11.07;9.20;;;11.50;78.30;;;;;;5056148;28;20035;-73
2023/04/30 06:12:24;;;;;;;11.57;8.50;;;11.60;78.20;;;;;;5073800;28;20048;-73
2023/04/30 06:14:51;;;;;;;13.18;9.52;;;11.60;78.00;;;;;;5074139;28;20020;-73
2023/04/30 06:17:16;;;;;;;13.38;8.95;;;11.40;78.80;;;;;;5073819;28;20032;-73
2023/04/30 06:19:42;;;;;;;10.50;8.32;;;11.30;79.50;;;;;;5073765;28;20074;-74
2023/04/30 06:22:07;;;;;;;9.75;7.53;;;11.40;79.40;;;;;;5055865;28;20215;-73
2023/04/30 06:24:33;;;;;;;14.52;9.73;;;11.50;79.10;;;;;;5073260;28;20036;-73
2023/04/30 06:26:58;;;;;;;11.70;9.07;;;11.60;78.80;;;;;;5073164;28;20024;-74
2023/04/30 06:29:24;;;;;;;12.20;8.65;;;11.60;78.70;;;;;;5072816;28;20037;-76
2023/04/30 06:31:51;;;;;;;10.15;7.95;;;11.60;78.40;;;;;;5073288;28;20062;-73
2023/04/30 06:34:17;;;;;;;11.68;8.60;;;11.70;79.00;;;;;;5073607;28;20029;-76
2023/04/30 06:36:43;;;;;;;10.02;8.65;;;11.80;77.50;;;;;;5073304;28;20393;-75
2023/04/30 06:39:09;;;;;;;10.50;8.82;;;11.90;77.10;;;;;;5055599;28;20035;-73
2023/04/30 06:41:34;;;;;;;9.95;7.97;;;11.90;77.20;;;;;;5073041;28;20025;-72
2023/04/30 06:44:00;;;;;;;13.35;8.98;;;12.00;77.10;;;;;;5071971;28;20489;-72
2023/04/30 06:46:25;;;;;;;10.38;8.73;;;12.00;76.80;;;;;;5073562;28;20468;-72
2023/04/30 06:48:51;;;;;;;10.85;8.38;;;11.90;77.30;;;;;;5073201;28;20047;-72
2023/04/30 06:51:16;;;;;;;8.90;6.60;;;11.90;77.40;;;;;;5073175;28;20499;-72
2023/04/30 06:53:42;;;;;;;14.40;8.88;;;12.00;77.10;;;;;;5073110;28;20558;-72
2023/04/30 06:56:07;;;;;;;11.73;8.90;;;12.10;77.10;;;;;;5073382;28;20024;-73
2023/04/30 06:58:33;;;;;;;9.80;7.50;;;12.10;76.60;;;;;;5073947;28;20431;-73
2023/04/30 07:00:59;;;;;;;13.63;8.68;;;12.20;76.40;;;;;;5073768;28;20495;-72
2023/04/30 07:03:24;;;;;;;10.57;8.63;;;12.30;76.10;;;;;;5073023;28;20021;-73
2023/04/30 07:05:51;;;;;;;12.73;8.45;;;12.30;75.30;;;;;;5072992;28;20024;-72
2023/04/30 07:08:16;;;;;;;10.27;8.18;;;12.40;75.10;;;;;;5073018;28;20016;-73
2023/04/30 07:10:42;;;;;;;11.48;8.25;;;12.40;74.90;;;;;;5072733;28;20388;-73
2023/04/30 07:13:07;;;;;;;8.20;6.97;;;12.30;75.60;;;;;;5073048;28;20032;-74
2023/04/30 07:15:36;;;;;;;33.10;10.88;;;12.30;76.00;;;;;;5072972;28;20024;-73
2023/04/30 07:18:03;;;;;;;20.02;8.18;;;12.60;83.20;;;;;;5072871;28;20066;-74
2023/04/30 07:20:29;;;;;;;9.30;6.95;;;12.90;79.90;;;;;;5072647;28;20023;-72
2023/04/30 07:22:54;;;;;;;9.73;7.03;;;13.40;77.00;;;;;;5072870;28;20028;-72
2023/04/30 07:25:20;;;;;;;8.65;6.88;;;13.70;69.00;;;;;;5072690;28;20388;-72
2023/04/30 07:27:45;;;;;;;9.82;7.03;;;13.80;67.70;;;;;;5072775;28;20064;-73
2023/04/30 07:30:11;;;;;;;8.35;7.22;;;14.20;67.10;;;;;;5054946;28;20036;-73
2023/04/30 07:32:38;;;;;;;9.10;7.40;;;14.40;62.10;;;;;;5054869;28;20017;-74
2023/04/30 07:35:05;;;;;;;9.63;6.90;;;14.60;60.60;;;;;;5072909;28;20046;-75
2023/04/30 07:37:30;;;;;;;12.70;7.40;;;14.80;59.10;;;;;;5072731;28;20515;-73
2023/04/30 07:39:56;;;;;;;12.00;7.35;;;15.00;57.60;;;;;;5072776;28;20026;-73
2023/04/30 07:42:22;;;;;;;15.45;7.55;;;15.10;58.10;;;;;;5072742;28;20052;-71
2023/04/30 07:44:48;;;;;;;9.45;7.15;;;15.30;56.70;;;;;;5072451;28;20056;-75
2023/04/30 07:47:13;;;;;;;8.65;6.82;;;15.30;55.40;;;;;;5072822;28;20090;-74
2023/04/30 07:49:40;;;;;;;10.75;7.32;;;15.10;55.60;;;;;;5072685;28;20135;-73
2023/04/30 07:52:09;;;;;;;8.65;7.10;;;14.80;56.40;;;;;;5072657;28;20100;-74
2023/04/30 07:54:37;;;;;;;7.95;6.50;;;14.60;56.90;;;;;;5076503;28;20046;-72
2023/04/30 07:57:03;;;;;;;10.02;6.78;;;14.50;57.70;;;;;;5076522;28;20020;-71
2023/04/30 07:59:29;;;;;;;7.32;6.55;;;14.40;58.00;;;;;;5076526;28;20045;-73
2023/04/30 08:01:55;;;;;;;7.47;6.25;;;14.30;59.00;;;;;;5076302;28;20052;-74
2023/04/30 08:04:20;;;;;;;9.07;6.88;;;14.30;59.20;;;;;;5076073;28;20471;-72
2023/04/30 08:06:46;;;;;;;8.52;6.28;;;14.20;57.80;;;;;;5076175;28;20107;-73
2023/04/30 08:09:11;;;;;;;8.60;6.10;;;14.20;58.10;;;;;;5058354;28;20025;-75
2023/04/30 08:11:37;;;;;;;9.15;7.07;;;14.30;58.20;;;;;;5076704;28;20469;-73
2023/04/30 08:14:03;;;;;;;8.65;6.40;;;14.30;57.40;;;;;;5076309;28;20021;-73
2023/04/30 08:16:29;;;;;;;7.40;6.07;;;14.40;57.30;;;;;;5076256;28;20032;-72
2023/04/30 08:18:54;;;;;;;7.82;6.00;;;14.40;56.60;;;;;;5060140;28;20056;-73
2023/04/30 08:21:20;;;;;;;7.63;5.57;;;14.40;56.60;;;;;;5043901;28;20020;-71
2023/04/30 08:23:46;;;;;;;11.60;6.45;;;14.50;57.20;;;;;;5075734;28;20050;-72
2023/04/30 08:26:11;;;;;;;7.57;6.07;;;14.50;57.10;;;;;;5075597;28;20032;-73
2023/04/30 08:28:37;;;;;;;8.73;5.57;;;14.50;55.50;;;;;;5076136;28;20021;-73
2023/04/30 08:31:02;;;;;;;6.95;5.70;;;14.40;56.00;;;;;;5075726;28;20443;-72
2023/04/30 08:33:28;;;;;;;7.40;5.32;;;14.60;55.90;;;;;;5075824;28;20085;-73
2023/04/30 08:35:53;;;;;;;6.78;5.43;;;14.60;55.00;;;;;;5075541;28;20125;-74
2023/04/30 08:38:19;;;;;;;6.43;5.00;;;14.70;54.70;;;;;;5075816;28;20029;-74
2023/04/30 08:40:51;;;;;;;5.97;4.75;;;14.90;54.80;;;;;;5075621;28;20064;-74
2023/04/30 08:43:18;;;;;;;4.50;4.10;;;15.00;54.80;;;;;;5057422;28;20500;-74
2023/04/30 08:45:44;;;;;;;6.65;4.30;;;15.20;54.70;;;;;;5075246;28;20052;-72
2023/04/30 08:48:15;;;;;;;5.07;3.75;;;15.50;53.50;;;;;;5074036;28;20492;-73
2023/04/30 08:50:41;;;;;;;4.78;3.92;;;15.70;51.70;;;;;;5055405;28;20020;-74
2023/04/30 08:53:09;;;;;;;4.10;3.40;;;15.90;51.80;;;;;;5073900;28;20023;-74
2023/04/30 08:55:39;;;;;;;8.07;4.53;;;16.00;51.10;;;;;;5055963;28;20112;-72
2023/04/30 08:58:05;;;;;;;4.13;3.60;;;16.00;49.40;;;;;;5056086;28;20107;-73
2023/04/30 09:00:32;;;;;;;4.50;3.50;;;15.90;49.90;;;;;;5055699;28;20103;-73
2023/04/30 09:03:00;;;;;;;3.35;3.00;;;15.90;49.40;;;;;;5073238;28;20508;-72
2023/04/30 09:05:25;;;;;;;3.65;2.80;;;16.00;49.70;;;;;;5073687;28;20392;-73
2023/04/30 09:07:51;;;;;;;4.78;3.03;;;16.00;50.80;;;;;;5074959;28;20027;-74
2023/04/30 09:10:19;;;;;;;3.15;2.55;;;16.20;50.10;;;;;;5057181;28;20078;-74
2023/04/30 09:13:02;;;;;;;3.97;2.67;;;16.40;49.90;;;;;;5074954;28;20030;-74
2023/04/30 09:15:28;;;;;;;4.88;2.90;;;16.50;49.00;;;;;;5056774;28;20025;-74
2023/04/30 09:18:16;;;;;;;2.83;2.50;;;16.50;47.60;;;;;;5056861;28;20052;-75
2023/04/30 09:21:01;;;;;;;3.00;2.40;;;16.50;47.90;;;;;;5075064;28;20017;-73
2023/04/30 09:23:27;;;;;;;2.95;2.67;;;16.60;48.20;;;;;;5075057;28;20025;-75
2023/04/30 09:25:53;;;;;;;5.20;3.13;;;16.90;48.00;;;;;;5074844;28;20035;-72
2023/04/30 09:28:23;;;;;;;5.28;3.22;;;16.90;46.30;;;;;;5074987;28;20086;-74
2023/04/30 09:30:50;;;;;;;3.85;2.78;;;17.00;46.20;;;;;;5056478;28;20029;-73
2023/04/30 09:33:16;;;;;;;3.72;2.70;;;17.10;46.10;;;;;;5073235;28;20111;-73
2023/04/30 09:35:41;;;;;;;4.10;2.25;;;17.00;46.30;;;;;;5073538;28;20161;-73
2023/04/30 09:38:23;;;;;;;3.33;2.53;;;16.90;46.20;;;;;;5073464;28;20052;-72
2023/04/30 09:40:49;;;;;;;3.83;2.05;;;16.90;45.80;;;;;;5070697;28;20352;-74
2023/04/30 09:43:14;;;;;;;3.08;2.47;;;16.90;45.60;;;;;;5072649;28;20032;-75
2023/04/30 09:45:50;;;;;;;3.75;2.65;;;17.00;45.30;;;;;;5072767;28;20472;-73
2023/04/30 09:48:28;;;;;;;4.90;1.90;;;16.90;45.80;;;;;;5072767;28;20020;-74
2023/04/30 09:50:54;;;;;;;7.72;5.05;;;16.80;44.10;;;;;;5072578;28;20101;-74
2023/04/30 09:53:20;;;;;;;6.07;2.80;;;16.90;44.40;;;;;;5074191;28;20552;-74
2023/04/30 09:55:49;;;;;;;2.58;2.30;;;16.80;44.90;;;;;;5074187;28;20114;-72
2023/04/30 09:58:16;;;;;;;2.38;1.95;;;16.70;44.50;;;;;;5074116;28;20016;-71
2023/04/30 10:00:42;;;;;;;2.42;2.22;;;16.60;44.20;;;;;;5056346;28;20043;-73
2023/04/30 10:03:09;;;;;;;2.25;2.00;;;16.50;44.50;;;;;;5074016;28;20028;-72
2023/04/30 10:05:46;;;;;;;2.40;1.92;;;16.40;44.80;;;;;;5056097;28;20024;-72
2023/04/30 10:08:55;;;;;;;2.47;1.90;;;16.40;44.70;;;;;;5073852;28;20044;-73
2023/04/30 10:11:26;;;;;;;2.92;2.63;;;16.50;45.20;;;;;;5056624;28;20064;-73
2023/04/30 10:14:02;;;;;;;3.30;2.05;;;16.60;45.10;;;;;;5074044;28;20111;-73
2023/04/30 10:16:50;;;;;;;3.30;2.17;;;16.70;44.00;;;;;;5073463;28;20025;-74
2023/04/30 10:19:29;;;;;;;4.43;3.20;;;16.70;44.60;;;;;;5073833;28;20024;-75
2023/04/30 10:21:54;;;;;;;2.40;2.17;;;16.80;43.40;;;;;;5073853;28;20017;-75
2023/04/30 10:24:20;;;;;;;4.85;2.05;;;17.10;44.30;;;;;;5073604;28;20472;-73
2023/04/30 10:26:47;;;;;;;2.95;2.20;;;17.20;44.00;;;;;;5056076;28;20020;-73
2023/04/30 10:29:14;;;;;;;2.72;2.25;;;17.30;43.60;;;;;;5073511;28;20025;-75
2023/04/30 10:31:46;;;;;;;2.10;1.90;;;17.40;43.40;;;;;;5073359;28;20023;-74
2023/04/30 10:34:44;;;;;;;4.35;1.70;;;17.50;43.00;;;;;;5055517;28;20389;-74
2023/04/30 10:37:21;;;;;;;1.70;1.60;;;17.40;43.50;;;;;;5073425;28;20127;-75
2023/04/30 10:39:48;;;;;;;2.05;1.65;;;17.40;43.20;;;;;;5055482;28;20051;-73
2023/04/30 10:42:13;;;;;;;3.67;2.05;;;17.40;42.60;;;;;;5073111;28;20428;-75
2023/04/30 10:44:39;;;;;;;3.72;2.83;;;17.30;42.90;;;;;;5055439;28;20127;-78
2023/04/30 10:47:06;;;;;;;3.58;2.83;;;17.40;44.60;;;;;;5055731;28;20094;-77
2023/04/30 10:49:32;;;;;;;3.58;2.25;;;17.60;46.50;;;;;;5074010;28;20020;-73
2023/04/30 10:52:02;;;;;;;6.28;2.45;;;17.80;46.50;;;;;;5075098;28;20350;-79
2023/04/30 10:54:34;;;;;;;3.17;2.58;;;18.00;44.80;;;;;;5072859;28;20009;-79
2023/04/30 10:57:11;;;;;;;3.00;2.10;;;18.30;43.80;;;;;;5069905;28;20033;-82
2023/04/30 10:59:37;;;;;;;7.32;2.15;;;18.60;43.90;;;;;;5068199;28;20021;-81
2023/04/30 11:02:03;;;;;;;3.42;2.13;;;18.80;43.20;;;;;;5073292;28;20036;-76
2023/04/30 11:04:28;;;;;;;4.60;2.85;;;18.90;42.60;;;;;;5066599;28;20036;-80
2023/04/30 11:07:00;;;;;;;6.60;3.20;;;19.00;42.90;;;;;;5083120;28;20032;-80
2023/04/30 11:09:36;;;;;;;10.68;2.47;;;19.10;40.90;;;;;;5074141;28;20017;-83
2023/04/30 11:12:10;;;;;;;7.85;2.30;;;19.20;40.00;;;;;;5073521;28;20021;-80
2023/04/30 11:14:41;;;;;;;4.68;2.17;;;19.20;41.00;;;;;;5073119;28;20020;-78
2023/04/30 11:17:06;;;;;;;2.70;2.40;;;19.20;40.80;;;;;;5054388;28;20032;-76
2023/04/30 11:19:33;;;;;;;3.13;2.10;;;19.30;41.20;;;;;;5055205;28;20123;-77
2023/04/30 11:22:02;;;;;;;3.60;2.60;;;19.30;40.10;;;;;;5054837;28;20028;-81
2023/04/30 11:24:50;;;;;;;3.05;2.20;;;19.30;39.70;;;;;;5054854;28;20040;-75
2023/04/30 11:27:20;;;;;;;2.85;1.83;;;19.20;38.70;;;;;;5055052;28;20020;-79
2023/04/30 11:29:46;;;;;;;2.83;2.13;;;19.20;39.60;;;;;;5059059;28;20024;-78
2023/04/30 11:32:12;;;;;;;3.05;1.95;;;19.10;39.00;;;;;;5059246;28;20024;-78
2023/04/30 11:34:39;;;;;;;3.00;2.00;;;19.10;39.50;;;;;;5059191;28;20564;-77
2023/04/30 11:37:05;;;;;;;3.15;2.30;;;19.10;40.60;;;;;;5058901;28;20476;-78
2023/04/30 11:39:34;;;;;;;3.90;1.70;;;19.20;38.20;;;;;;5058583;28;20033;-77
2023/04/30 11:42:02;;;;;;;4.43;2.13;;;19.30;38.50;;;;;;5077071;28;20016;-76
2023/04/30 11:44:27;;;;;;;3.45;2.13;;;19.20;38.00;;;;;;5058978;28;20397;-78
2023/04/30 11:46:53;;;;;;;3.30;2.30;;;19.10;40.30;;;;;;5077563;28;20025;-79
2023/04/30 11:49:22;;;;;;;2.60;2.10;;;19.00;38.80;;;;;;5058998;28;20032;-77
2023/04/30 11:51:51;;;;;;;4.53;2.97;;;18.90;38.80;;;;;;5076637;28;20547;-77
2023/04/30 11:54:18;;;;;;;2.38;2.17;;;18.80;39.00;;;;;;5075770;28;20021;-77
2023/04/30 11:56:50;;;;;;;2.75;1.90;;;18.80;39.10;;;;;;5058781;28;20473;-76
2023/04/30 11:59:18;;;;;;;3.83;2.17;;;18.90;39.40;;;;;;5058417;28;20490;-77
2023/04/30 12:01:44;;;;;;;3.75;2.22;;;18.90;39.10;;;;;;5076286;28;20012;-77
2023/04/30 12:04:10;;;;;;;3.17;1.95;;;18.80;39.70;;;;;;5076248;28;20043;-77
2023/04/30 12:06:35;;;;;;;2.88;2.00;;;18.80;39.80;;;;;;5076172;28;20477;-76
2023/04/30 12:09:05;;;;;;;2.80;2.05;;;19.00;39.20;;;;;;5058251;28;20123;-74
2023/04/30 12:11:32;;;;;;;3.25;1.63;;;19.00;37.60;;;;;;5075962;28;20036;-75
2023/04/30 12:14:02;;;;;;;9.85;4.65;;;18.90;38.30;;;;;;5057843;28;20024;-75
2023/04/30 12:16:38;;;;;;;2.80;2.20;;;18.90;38.40;;;;;;5076272;28;20445;-76
2023/04/30 12:19:04;;;;;;;3.20;2.17;;;18.90;39.00;;;;;;5076739;28;20034;-75
2023/04/30 12:21:30;;;;;;;3.40;1.73;;;19.00;38.50;;;;;;5058435;28;20383;-75
2023/04/30 12:23:55;;;;;;;2.35;2.00;;;18.90;38.00;;;;;;5076318;28;20028;-75
2023/04/30 12:26:21;;;;;;;2.15;1.95;;;18.70;39.00;;;;;;5059053;28;20108;-75
2023/04/30 12:28:51;;;;;;;3.08;1.90;;;18.50;39.00;;;;;;5080588;28;20020;-75
2023/04/30 12:31:17;;;;;;;2.55;2.10;;;18.50;39.60;;;;;;5058026;28;20048;-75
2023/04/30 12:33:42;;;;;;;3.58;2.05;;;18.50;40.00;;;;;;5075716;28;20024;-77
2023/04/30 12:36:15;;;;;;;9.00;5.85;;;18.40;41.30;;;;;;5073544;28;20037;-76
2023/04/30 12:38:44;;;;;;;9.43;5.78;;;18.30;41.70;;;;;;5057230;28;20025;-74
2023/04/30 12:41:14;;;;;;;4.97;2.38;;;18.30;41.20;;;;;;5075378;28;20064;-74
2023/04/30 12:43:39;;;;;;;3.40;2.08;;;18.20;41.20;;;;;;5057782;28;20035;-73
2023/04/30 12:46:05;;;;;;;3.08;2.03;;;18.10;41.40;;;;;;5075477;28;20029;-73